sensor_id;sensor_type;location;lat;lon;timestamp;pressure;altitude;pressure_sealevel;temperature;humidity
52957;BME280;38819;42.692;23.342;2023-11-21T00:00:46;95139.91;;;6.41;71.40
52957;BME280;38819;42.692;23.342;2023-11-21T00:03:12;95144.47;;;6.45;71.09
52957;BME280;38819;42.692;23.342;2023-11-21T00:05:40;95138.59;;;6.43;70.78
52957;BME280;38819;42.692;23.342;2023-11-21T00:08:06;95141.25;;;6.43;70.93
52957;BME280;38819;42.692;23.342;2023-11-21T00:10:32;95141.00;;;6.50;70.68
52957;BME280;38819;42.692;23.342;2023-11-21T00:12:57;95141.25;;;6.48;70.85
52957;BME280;38819;42.692;23.342;2023-11-21T00:15:22;95136.69;;;6.34;71.68
52957;BME280;38819;42.692;23.342;2023-11-21T00:17:48;95136.69;;;6.28;71.92
52957;BME280;38819;42.692;23.342;2023-11-21T00:20:13;95150.09;;;6.28;71.90
52957;BME280;38819;42.692;23.342;2023-11-21T00:22:38;95140.19;;;6.34;71.36
52957;BME280;38819;42.692;23.342;2023-11-21T00:25:05;95140.16;;;6.24;71.93
52957;BME280;38819;42.692;23.342;2023-11-21T00:27:31;95139.38;;;6.18;72.27
52957;BME280;38819;42.692;23.342;2023-11-21T00:29:56;95133.72;;;6.20;72.48
52957;BME280;38819;42.692;23.342;2023-11-21T00:32:21;95122.72;;;6.26;72.11
52957;BME280;38819;42.692;23.342;2023-11-21T00:34:47;95136.69;;;6.34;71.94
52957;BME280;38819;42.692;23.342;2023-11-21T00:37:12;95138.28;;;6.29;71.90
52957;BME280;38819;42.692;23.342;2023-11-21T00:39:37;95136.69;;;6.39;71.54
52957;BME280;38819;42.692;23.342;2023-11-21T00:42:02;95128.38;;;6.35;71.38
52957;BME280;38819;42.692;23.342;2023-11-21T00:44:29;95136.16;;;6.32;71.45
52957;BME280;38819;42.692;23.342;2023-11-21T00:46:55;95136.97;;;6.27;71.42
52957;BME280;38819;42.692;23.342;2023-11-21T00:49:20;95140.16;;;6.19;71.63
52957;BME280;38819;42.692;23.342;2023-11-21T00:51:45;95139.63;;;6.22;71.83
52957;BME280;38819;42.692;23.342;2023-11-21T00:54:11;95135.06;;;6.22;71.99
52957;BME280;38819;42.692;23.342;2023-11-21T00:56:36;95130.25;;;6.24;72.09
52957;BME280;38819;42.692;23.342;2023-11-21T00:59:02;95128.63;;;6.18;72.40
52957;BME280;38819;42.692;23.342;2023-11-21T01:01:30;95131.59;;;6.22;71.85
52957;BME280;38819;42.692;23.342;2023-11-21T01:03:55;95122.44;;;6.12;71.98
52957;BME280;38819;42.692;23.342;2023-11-21T01:06:20;95121.38;;;6.08;72.24
52957;BME280;38819;42.692;23.342;2023-11-21T01:08:46;95117.91;;;6.18;71.85
52957;BME280;38819;42.692;23.342;2023-11-21T01:11:11;95115.22;;;6.18;71.64
52957;BME280;38819;42.692;23.342;2023-11-21T01:13:40;95120.59;;;6.18;71.42
52957;BME280;38819;42.692;23.342;2023-11-21T01:16:05;95119.25;;;6.26;71.58
52957;BME280;38819;42.692;23.342;2023-11-21T01:18:37;95109.56;;;6.09;72.18
52957;BME280;38819;42.692;23.342;2023-11-21T01:21:02;95121.38;;;6.03;72.01
52957;BME280;38819;42.692;23.342;2023-11-21T01:23:27;95121.91;;;6.00;72.00
52957;BME280;38819;42.692;23.342;2023-11-21T01:25:55;95123.22;;;6.03;72.13
52957;BME280;38819;42.692;23.342;2023-11-21T01:28:21;95125.38;;;6.01;72.13
52957;BME280;38819;42.692;23.342;2023-11-21T01:30:46;95124.59;;;6.00;71.96
52957;BME280;38819;42.692;23.342;2023-11-21T01:33:11;95113.84;;;6.00;72.02
52957;BME280;38819;42.692;23.342;2023-11-21T01:35:36;95116.28;;;5.97;71.93
52957;BME280;38819;42.692;23.342;2023-11-21T01:38:02;95116.22;;;5.91;72.36
52957;BME280;38819;42.692;23.342;2023-11-21T01:40:28;95125.34;;;5.96;72.05
52957;BME280;38819;42.692;23.342;2023-11-21T01:42:55;95135.84;;;5.97;72.05
52957;BME280;38819;42.692;23.342;2023-11-21T01:45:21;95137.13;;;5.94;72.25
52957;BME280;38819;42.692;23.342;2023-11-21T01:47:46;95126.41;;;5.89;72.29
52957;BME280;38819;42.692;23.342;2023-11-21T01:50:15;95120.50;;;5.92;72.24
52957;BME280;38819;42.692;23.342;2023-11-21T01:52:42;95113.81;;;5.95;71.62
52957;BME280;38819;42.692;23.342;2023-11-21T01:55:08;95108.47;;;5.95;71.76
52957;BME280;38819;42.692;23.342;2023-11-21T01:57:35;95112.72;;;5.91;71.84
52957;BME280;38819;42.692;23.342;2023-11-21T02:00:02;95124.81;;;5.93;71.60
52957;BME280;38819;42.692;23.342;2023-11-21T02:02:49;95122.38;;;5.87;71.99
52957;BME280;38819;42.692;23.342;2023-11-21T02:05:14;95110.03;;;5.86;71.71
52957;BME280;38819;42.692;23.342;2023-11-21T02:07:42;95115.13;;;5.82;71.71
52957;BME280;38819;42.692;23.342;2023-11-21T02:10:11;95114.34;;;5.82;71.67
52957;BME280;38819;42.692;23.342;2023-11-21T02:12:40;95117.28;;;5.85;71.44
52957;BME280;38819;42.692;23.342;2023-11-21T02:15:05;95122.38;;;5.77;71.67
52957;BME280;38819;42.692;23.342;2023-11-21T02:17:35;95123.69;;;5.79;71.65
52957;BME280;38819;42.692;23.342;2023-11-21T02:20:00;95120.22;;;5.84;71.45
52957;BME280;38819;42.692;23.342;2023-11-21T02:22:26;95121.53;;;5.81;71.47
52957;BME280;38819;42.692;23.342;2023-11-21T02:24:53;95112.19;;;5.79;71.11
52957;BME280;38819;42.692;23.342;2023-11-21T02:27:18;95108.97;;;5.77;71.28
52957;BME280;38819;42.692;23.342;2023-11-21T02:29:46;95110.81;;;5.71;71.72
52957;BME280;38819;42.692;23.342;2023-11-21T02:32:12;95119.66;;;5.71;71.89
52957;BME280;38819;42.692;23.342;2023-11-21T02:34:37;95114.03;;;5.73;72.01
52957;BME280;38819;42.692;23.342;2023-11-21T02:37:04;95115.59;;;5.59;72.62
52957;BME280;38819;42.692;23.342;2023-11-21T02:39:30;95110.25;;;5.64;72.64
52957;BME280;38819;42.692;23.342;2023-11-21T02:41:56;95107.06;;;5.67;72.60
52957;BME280;38819;42.692;23.342;2023-11-21T02:44:22;95107.31;;;5.65;72.43
52957;BME280;38819;42.692;23.342;2023-11-21T02:46:47;95105.72;;;5.69;72.36
52957;BME280;38819;42.692;23.342;2023-11-21T02:49:12;95106.53;;;5.70;72.05
52957;BME280;38819;42.692;23.342;2023-11-21T02:51:38;95103.84;;;5.65;71.96
52957;BME280;38819;42.692;23.342;2023-11-21T02:54:04;95111.88;;;5.65;71.80
52957;BME280;38819;42.692;23.342;2023-11-21T02:56:31;95112.94;;;5.64;71.97
52957;BME280;38819;42.692;23.342;2023-11-21T02:58:59;95108.09;;;5.55;72.34
52957;BME280;38819;42.692;23.342;2023-11-21T03:01:24;95110.72;;;5.45;72.85
52957;BME280;38819;42.692;23.342;2023-11-21T03:03:50;95115.25;;;5.39;72.94
52957;BME280;38819;42.692;23.342;2023-11-21T03:06:18;95103.97;;;5.32;73.22
52957;BME280;38819;42.692;23.342;2023-11-21T03:08:44;95108.00;;;5.30;73.12
52957;BME280;38819;42.692;23.342;2023-11-21T03:11:09;95111.19;;;5.27;73.16
52957;BME280;38819;42.692;23.342;2023-11-21T03:13:35;95105.31;;;5.25;73.37
52957;BME280;38819;42.692;23.342;2023-11-21T03:16:00;95116.56;;;5.27;73.40
52957;BME280;38819;42.692;23.342;2023-11-21T03:18:25;95109.88;;;5.34;73.32
52957;BME280;38819;42.692;23.342;2023-11-21T03:20:52;95113.13;;;5.36;73.32
52957;BME280;38819;42.692;23.342;2023-11-21T03:23:17;95120.31;;;5.36;73.30
52957;BME280;38819;42.692;23.342;2023-11-21T03:25:42;95124.13;;;5.40;73.41
52957;BME280;38819;42.692;23.342;2023-11-21T03:28:08;95118.22;;;5.43;73.32
52957;BME280;38819;42.692;23.342;2023-11-21T03:30:33;95125.69;;;5.41;73.32
52957;BME280;38819;42.692;23.342;2023-11-21T03:32:59;95130.25;;;5.41;73.31
52957;BME280;38819;42.692;23.342;2023-11-21T03:35:24;95125.19;;;5.49;72.74
52957;BME280;38819;42.692;23.342;2023-11-21T03:37:49;95115.31;;;5.50;73.06
52957;BME280;38819;42.692;23.342;2023-11-21T03:40:15;95125.22;;;5.54;72.86
52957;BME280;38819;42.692;23.342;2023-11-21T03:42:40;95116.66;;;5.57;72.42
52957;BME280;38819;42.692;23.342;2023-11-21T03:45:06;95108.03;;;5.40;72.98
52957;BME280;38819;42.692;23.342;2023-11-21T03:47:31;95112.00;;;5.32;73.37
52957;BME280;38819;42.692;23.342;2023-11-21T03:49:57;95110.69;;;5.35;73.79
52957;BME280;38819;42.692;23.342;2023-11-21T03:52:22;95104.28;;;5.41;73.58
52957;BME280;38819;42.692;23.342;2023-11-21T03:54:47;95099.41;;;5.33;73.76
52957;BME280;38819;42.692;23.342;2023-11-21T03:57:12;95092.25;;;5.44;73.33
52957;BME280;38819;42.692;23.342;2023-11-21T03:59:41;95089.81;;;5.42;73.26
52957;BME280;38819;42.692;23.342;2023-11-21T04:02:07;95095.19;;;5.47;73.20
52957;BME280;38819;42.692;23.342;2023-11-21T04:04:33;95106.19;;;5.51;72.95
52957;BME280;38819;42.692;23.342;2023-11-21T04:06:58;95092.00;;;5.50;73.19
52957;BME280;38819;42.692;23.342;2023-11-21T04:09:23;95092.25;;;5.44;73.41
52957;BME280;38819;42.692;23.342;2023-11-21T04:11:50;95086.63;;;5.40;73.28
52957;BME280;38819;42.692;23.342;2023-11-21T04:14:15;95087.91;;;5.32;73.79
52957;BME280;38819;42.692;23.342;2023-11-21T04:16:42;95088.19;;;5.36;73.62
52957;BME280;38819;42.692;23.342;2023-11-21T04:19:07;95091.94;;;5.30;73.61
52957;BME280;38819;42.692;23.342;2023-11-21T04:21:34;95084.41;;;5.27;73.81
52957;BME280;38819;42.692;23.342;2023-11-21T04:23:59;95093.00;;;5.29;74.04
52957;BME280;38819;42.692;23.342;2023-11-21T04:26:24;95087.66;;;5.34;73.83
52957;BME280;38819;42.692;23.342;2023-11-21T04:28:50;95089.28;;;5.35;73.66
52957;BME280;38819;42.692;23.342;2023-11-21T04:31:15;95085.25;;;5.37;73.79
52957;BME280;38819;42.692;23.342;2023-11-21T04:33:40;95092.47;;;5.32;73.38
52957;BME280;38819;42.692;23.342;2023-11-21T04:36:06;95090.84;;;5.31;73.41
52957;BME280;38819;42.692;23.342;2023-11-21T04:38:31;95090.31;;;5.29;73.45
52957;BME280;38819;42.692;23.342;2023-11-21T04:40:58;95091.38;;;5.33;73.13
52957;BME280;38819;42.692;23.342;2023-11-21T04:43:23;95091.38;;;5.33;73.14
52957;BME280;38819;42.692;23.342;2023-11-21T04:45:48;95102.66;;;5.30;73.02
52957;BME280;38819;42.692;23.342;2023-11-21T04:48:14;95095.44;;;5.35;72.69
52957;BME280;38819;42.692;23.342;2023-11-21T04:50:39;95095.72;;;5.39;72.59
52957;BME280;38819;42.692;23.342;2023-11-21T04:53:04;95101.06;;;5.39;72.47
52957;BME280;38819;42.692;23.342;2023-11-21T04:55:30;95105.06;;;5.31;72.61
52957;BME280;38819;42.692;23.342;2023-11-21T04:57:55;95103.75;;;5.39;72.19
52957;BME280;38819;42.692;23.342;2023-11-21T05:00:21;95097.84;;;5.32;72.53
52957;BME280;38819;42.692;23.342;2023-11-21T05:02:46;95101.81;;;5.29;72.64
52957;BME280;38819;42.692;23.342;2023-11-21T05:05:12;95104.25;;;5.31;72.74
52957;BME280;38819;42.692;23.342;2023-11-21T05:07:37;95106.09;;;5.25;73.09
52957;BME280;38819;42.692;23.342;2023-11-21T05:10:04;95109.84;;;5.29;73.19
52957;BME280;38819;42.692;23.342;2023-11-21T05:12:32;95098.59;;;5.27;72.97
52957;BME280;38819;42.692;23.342;2023-11-21T05:15:06;95091.94;;;5.30;73.17
52957;BME280;38819;42.692;23.342;2023-11-21T05:17:35;95084.69;;;5.30;72.96
52957;BME280;38819;42.692;23.342;2023-11-21T05:20:00;95090.34;;;5.34;72.91
52957;BME280;38819;42.692;23.342;2023-11-21T05:22:29;95088.47;;;5.39;72.68
52957;BME280;38819;42.692;23.342;2023-11-21T05:24:54;95083.41;;;5.38;72.80
52957;BME280;38819;42.692;23.342;2023-11-21T05:27:19;95081.53;;;5.44;72.61
52957;BME280;38819;42.692;23.342;2023-11-21T05:29:44;95101.63;;;5.46;72.42
52957;BME280;38819;42.692;23.342;2023-11-21T05:32:10;95109.66;;;5.46;72.60
52957;BME280;38819;42.692;23.342;2023-11-21T05:34:35;95104.53;;;5.39;72.61
52957;BME280;38819;42.692;23.342;2023-11-21T05:37:00;95105.09;;;5.36;72.90
52957;BME280;38819;42.692;23.342;2023-11-21T05:39:25;95104.00;;;5.37;73.22
52957;BME280;38819;42.692;23.342;2023-11-21T05:41:52;95112.31;;;5.46;73.15
52957;BME280;38819;42.692;23.342;2023-11-21T05:44:18;95114.25;;;5.56;73.01
52957;BME280;38819;42.692;23.342;2023-11-21T05:46:44;95113.44;;;5.50;72.80
52957;BME280;38819;42.692;23.342;2023-11-21T05:49:09;95106.72;;;5.48;72.95
52957;BME280;38819;42.692;23.342;2023-11-21T05:51:34;95121.75;;;5.59;72.51
52957;BME280;38819;42.692;23.342;2023-11-21T05:53:59;95100.31;;;5.59;72.34
52957;BME280;38819;42.692;23.342;2023-11-21T05:56:25;95100.53;;;5.42;72.81
52957;BME280;38819;42.692;23.342;2023-11-21T05:58:50;95105.88;;;5.37;73.06
52957;BME280;38819;42.692;23.342;2023-11-21T06:01:16;95107.44;;;5.33;73.18
52957;BME280;38819;42.692;23.342;2023-11-21T06:03:41;95105.59;;;5.28;73.17
52957;BME280;38819;42.692;23.342;2023-11-21T06:06:07;95106.66;;;5.32;73.02
52957;BME280;38819;42.692;23.342;2023-11-21T06:08:32;95110.06;;;5.17;73.50
52957;BME280;38819;42.692;23.342;2023-11-21T06:10:57;95115.19;;;5.24;73.69
52957;BME280;38819;42.692;23.342;2023-11-21T06:13:22;95109.59;;;5.31;73.54
52957;BME280;38819;42.692;23.342;2023-11-21T06:15:50;95112.53;;;5.29;73.67
52957;BME280;38819;42.692;23.342;2023-11-21T06:18:15;95121.97;;;5.42;73.36
52957;BME280;38819;42.692;23.342;2023-11-21T06:20:40;95115.59;;;5.53;72.97
52957;BME280;38819;42.692;23.342;2023-11-21T06:23:05;95120.16;;;5.58;72.91
52957;BME280;38819;42.692;23.342;2023-11-21T06:25:31;95124.69;;;5.52;73.13
52957;BME280;38819;42.692;23.342;2023-11-21T06:28:01;95132.19;;;5.55;73.47
52957;BME280;38819;42.692;23.342;2023-11-21T06:30:26;95125.53;;;5.58;73.25
52957;BME280;38819;42.692;23.342;2023-11-21T06:32:51;95124.72;;;5.63;73.07
52957;BME280;38819;42.692;23.342;2023-11-21T06:35:17;95132.50;;;5.64;73.12
52957;BME280;38819;42.692;23.342;2023-11-21T06:37:42;95131.97;;;5.67;73.16
52957;BME280;38819;42.692;23.342;2023-11-21T06:40:12;95133.06;;;5.71;72.67
52957;BME280;38819;42.692;23.342;2023-11-21T06:42:40;95140.81;;;5.73;72.31
52957;BME280;38819;42.692;23.342;2023-11-21T06:45:06;95140.53;;;5.69;72.51
52957;BME280;38819;42.692;23.342;2023-11-21T06:47:31;95143.22;;;5.69;72.53
52957;BME280;38819;42.692;23.342;2023-11-21T06:49:56;95129.31;;;5.72;72.37
52957;BME280;38819;42.692;23.342;2023-11-21T06:52:22;95142.19;;;5.81;72.36
52957;BME280;38819;42.692;23.342;2023-11-21T06:54:48;95134.72;;;5.93;72.02
52957;BME280;38819;42.692;23.342;2023-11-21T06:57:14;95134.44;;;5.94;71.82
52957;BME280;38819;42.692;23.342;2023-11-21T06:59:40;95140.41;;;5.97;71.93
52957;BME280;38819;42.692;23.342;2023-11-21T07:02:05;95128.59;;;6.08;71.87
52957;BME280;38819;42.692;23.342;2023-11-21T07:04:32;95138.28;;;6.14;71.63
52957;BME280;38819;42.692;23.342;2023-11-21T07:06:57;95137.22;;;6.20;71.66
52957;BME280;38819;42.692;23.342;2023-11-21T07:09:22;95135.34;;;6.26;71.82
52957;BME280;38819;42.692;23.342;2023-11-21T07:11:48;95137.22;;;6.30;71.84
52957;BME280;38819;42.692;23.342;2023-11-21T07:14:13;95129.44;;;6.29;72.01
52957;BME280;38819;42.692;23.342;2023-11-21T07:16:39;95115.50;;;6.47;71.22
52957;BME280;38819;42.692;23.342;2023-11-21T07:19:04;95120.84;;;6.53;71.16
52957;BME280;38819;42.692;23.342;2023-11-21T07:21:32;95123.78;;;6.61;70.82
52957;BME280;38819;42.692;23.342;2023-11-21T07:23:58;95130.00;;;6.62;70.61
52957;BME280;38819;42.692;23.342;2023-11-21T07:26:24;95121.94;;;6.67;70.49
52957;BME280;38819;42.692;23.342;2023-11-21T07:28:50;95123.81;;;6.72;70.43
52957;BME280;38819;42.692;23.342;2023-11-21T07:31:16;95132.66;;;6.72;70.51
52957;BME280;38819;42.692;23.342;2023-11-21T07:33:41;95133.72;;;6.81;70.36
52957;BME280;38819;42.692;23.342;2023-11-21T07:36:06;95133.19;;;6.84;70.29
52957;BME280;38819;42.692;23.342;2023-11-21T07:38:32;95136.38;;;6.86;70.15
52957;BME280;38819;42.692;23.342;2023-11-21T07:40:58;95123.00;;;6.92;69.79
52957;BME280;38819;42.692;23.342;2023-11-21T07:43:26;95123.00;;;6.92;69.93
52957;BME280;38819;42.692;23.342;2023-11-21T07:45:51;95122.69;;;6.93;70.06
52957;BME280;38819;42.692;23.342;2023-11-21T07:48:17;95122.69;;;6.93;70.03
52957;BME280;38819;42.692;23.342;2023-11-21T07:50:42;95116.50;;;6.98;69.95
52957;BME280;38819;42.692;23.342;2023-11-21T07:53:07;95112.47;;;7.05;69.57
52957;BME280;38819;42.692;23.342;2023-11-21T07:55:32;95113.53;;;7.04;69.86
52957;BME280;38819;42.692;23.342;2023-11-21T07:57:58;95113.78;;;7.08;69.87
52957;BME280;38819;42.692;23.342;2023-11-21T08:00:24;95109.75;;;7.21;69.65
52957;BME280;38819;42.692;23.342;2023-11-21T08:02:49;95112.63;;;7.35;69.74
52957;BME280;38819;42.692;23.342;2023-11-21T08:05:14;95103.50;;;7.41;69.22
52957;BME280;38819;42.692;23.342;2023-11-21T08:07:40;95100.00;;;7.40;69.03
52957;BME280;38819;42.692;23.342;2023-11-21T08:10:06;95108.34;;;7.39;69.12
52957;BME280;38819;42.692;23.342;2023-11-21T08:12:31;95095.91;;;7.53;68.84
52957;BME280;38819;42.692;23.342;2023-11-21T08:14:57;95098.03;;;7.56;68.43
52957;BME280;38819;42.692;23.342;2023-11-21T08:17:22;95106.69;;;7.48;68.41
52957;BME280;38819;42.692;23.342;2023-11-21T08:19:48;95110.97;;;7.54;68.47
52957;BME280;38819;42.692;23.342;2023-11-21T08:22:17;95101.00;;;7.55;68.56
52957;BME280;38819;42.692;23.342;2023-11-21T08:24:46;95100.47;;;7.53;68.37
52957;BME280;38819;42.692;23.342;2023-11-21T08:27:11;95100.19;;;7.59;68.21
52957;BME280;38819;42.692;23.342;2023-11-21T08:29:37;95095.59;;;7.60;68.38
52957;BME280;38819;42.692;23.342;2023-11-21T08:32:02;95098.81;;;7.67;68.18
52957;BME280;38819;42.692;23.342;2023-11-21T08:34:28;95104.16;;;7.72;68.01
52957;BME280;38819;42.692;23.342;2023-11-21T08:36:53;95097.41;;;7.75;68.00
52957;BME280;38819;42.692;23.342;2023-11-21T08:39:19;95104.47;;;7.66;68.04
52957;BME280;38819;42.692;23.342;2023-11-21T08:41:44;95100.69;;;7.72;67.72
52957;BME280;38819;42.692;23.342;2023-11-21T08:44:09;95102.88;;;7.59;68.17
52957;BME280;38819;42.692;23.342;2023-11-21T08:46:36;95097.06;;;7.37;68.70
52957;BME280;38819;42.692;23.342;2023-11-21T08:49:01;95097.00;;;7.52;68.74
52957;BME280;38819;42.692;23.342;2023-11-21T08:51:27;95095.34;;;7.56;68.47
52957;BME280;38819;42.692;23.342;2023-11-21T08:53:52;95099.41;;;7.54;68.50
52957;BME280;38819;42.692;23.342;2023-11-21T08:56:18;95090.00;;;7.51;68.57
52957;BME280;38819;42.692;23.342;2023-11-21T08:58:45;95084.09;;;7.54;68.18
52957;BME280;38819;42.692;23.342;2023-11-21T09:01:10;95069.03;;;7.58;68.26
52957;BME280;38819;42.692;23.342;2023-11-21T09:03:37;95074.31;;;7.74;68.04
52957;BME280;38819;42.692;23.342;2023-11-21T09:06:02;95062.16;;;7.82;67.74
52957;BME280;38819;42.692;23.342;2023-11-21T09:08:28;95057.84;;;7.86;67.73
52957;BME280;38819;42.692;23.342;2023-11-21T09:10:54;95049.16;;;7.99;67.79
52957;BME280;38819;42.692;23.342;2023-11-21T09:13:19;95043.97;;;8.08;67.47
52957;BME280;38819;42.692;23.342;2023-11-21T09:15:45;95036.09;;;7.82;67.79
52957;BME280;38819;42.692;23.342;2023-11-21T09:18:14;95039.53;;;7.88;68.32
52957;BME280;38819;42.692;23.342;2023-11-21T09:20:40;95031.81;;;7.76;68.21
52957;BME280;38819;42.692;23.342;2023-11-21T09:23:05;95017.66;;;7.65;68.94
52957;BME280;38819;42.692;23.342;2023-11-21T09:25:32;95018.09;;;7.77;69.28
52957;BME280;38819;42.692;23.342;2023-11-21T09:27:57;95021.00;;;7.86;68.99
52957;BME280;38819;42.692;23.342;2023-11-21T09:30:23;95012.34;;;7.94;68.80
52957;BME280;38819;42.692;23.342;2023-11-21T09:32:49;94992.06;;;8.07;68.52
52957;BME280;38819;42.692;23.342;2023-11-21T09:35:15;94980.94;;;8.19;68.29
52957;BME280;38819;42.692;23.342;2023-11-21T09:37:41;94981.41;;;8.26;67.73
52957;BME280;38819;42.692;23.342;2023-11-21T09:40:07;94977.88;;;8.31;67.83
52957;BME280;38819;42.692;23.342;2023-11-21T09:42:39;94976.16;;;8.45;67.44
52957;BME280;38819;42.692;23.342;2023-11-21T09:47:38;94966.19;;;8.70;66.65
52957;BME280;38819;42.692;23.342;2023-11-21T09:50:03;94960.94;;;8.84;66.25
52957;BME280;38819;42.692;23.342;2023-11-21T09:52:29;94945.94;;;8.97;65.72
52957;BME280;38819;42.692;23.342;2023-11-21T09:54:57;94932.75;;;8.95;65.75
52957;BME280;38819;42.692;23.342;2023-11-21T09:57:23;94922.75;;;9.01;65.21
52957;BME280;38819;42.692;23.342;2023-11-21T09:59:51;94922.66;;;9.06;65.26
52957;BME280;38819;42.692;23.342;2023-11-21T10:02:24;94916.25;;;9.02;65.82
52957;BME280;38819;42.692;23.342;2023-11-21T10:04:51;94915.03;;;9.13;65.62
52957;BME280;38819;42.692;23.342;2023-11-21T10:07:17;94914.81;;;9.09;65.72
52957;BME280;38819;42.692;23.342;2023-11-21T10:09:42;94915.53;;;9.15;65.34
52957;BME280;38819;42.692;23.342;2023-11-21T10:12:08;94916.56;;;9.19;65.38
52957;BME280;38819;42.692;23.342;2023-11-21T10:14:35;94917.56;;;9.23;65.33
52957;BME280;38819;42.692;23.342;2023-11-21T10:17:02;94913.72;;;9.30;65.06
52957;BME280;38819;42.692;23.342;2023-11-21T10:19:27;94910.16;;;9.34;64.91
52957;BME280;38819;42.692;23.342;2023-11-21T10:21:53;94907.88;;;9.41;64.48
52957;BME280;38819;42.692;23.342;2023-11-21T10:24:19;94894.13;;;9.43;64.35
52957;BME280;38819;42.692;23.342;2023-11-21T10:26:44;94891.41;;;9.62;63.84
52957;BME280;38819;42.692;23.342;2023-11-21T10:29:13;94887.03;;;9.66;63.48
52957;BME280;38819;42.692;23.342;2023-11-21T10:31:41;94883.75;;;9.69;63.48
52957;BME280;38819;42.692;23.342;2023-11-21T10:36:38;94879.38;;;9.87;62.76
52957;BME280;38819;42.692;23.342;2023-11-21T10:39:03;94884.47;;;9.89;62.42
52957;BME280;38819;42.692;23.342;2023-11-21T10:41:28;94873.41;;;9.90;62.04
52957;BME280;38819;42.692;23.342;2023-11-21T10:43:53;94868.31;;;9.89;61.84
52957;BME280;38819;42.692;23.342;2023-11-21T10:46:20;94865.13;;;10.00;61.35
52957;BME280;38819;42.692;23.342;2023-11-21T10:48:50;94862.03;;;9.93;62.08
52957;BME280;38819;42.692;23.342;2023-11-21T10:51:16;94866.22;;;9.86;62.51
52957;BME280;38819;42.692;23.342;2023-11-21T10:53:44;94867.00;;;9.86;62.20
52957;BME280;38819;42.692;23.342;2023-11-21T10:56:10;94861.81;;;9.90;61.67
52957;BME280;38819;42.692;23.342;2023-11-21T10:58:42;94860.00;;;9.85;61.83
52957;BME280;38819;42.692;23.342;2023-11-21T11:01:08;94849.72;;;9.87;61.59
52957;BME280;38819;42.692;23.342;2023-11-21T11:03:36;94854.03;;;9.88;61.61
52957;BME280;38819;42.692;23.342;2023-11-21T11:06:03;94847.25;;;9.91;61.19
52957;BME280;38819;42.692;23.342;2023-11-21T11:08:29;94846.94;;;9.92;60.96
52957;BME280;38819;42.692;23.342;2023-11-21T11:10:55;94842.66;;;9.91;61.34
52957;BME280;38819;42.692;23.342;2023-11-21T11:13:21;94844.50;;;9.77;60.86
52957;BME280;38819;42.692;23.342;2023-11-21T11:15:49;94840.44;;;9.93;60.99
52957;BME280;38819;42.692;23.342;2023-11-21T11:18:15;94838.16;;;10.00;60.76
52957;BME280;38819;42.692;23.342;2023-11-21T11:20:41;94828.28;;;10.10;60.66
52957;BME280;38819;42.692;23.342;2023-11-21T11:23:28;94825.38;;;10.20;60.57
52957;BME280;38819;42.692;23.342;2023-11-21T11:28:22;94803.78;;;10.20;60.38
52957;BME280;38819;42.692;23.342;2023-11-21T11:36:37;94801.22;;;10.43;60.07
52957;BME280;38819;42.692;23.342;2023-11-21T11:38:45;94802.31;;;10.42;59.95
52957;BME280;38819;42.692;23.342;2023-11-21T11:41:11;94802.22;;;10.47;59.95
52957;BME280;38819;42.692;23.342;2023-11-21T11:43:37;94801.31;;;10.51;59.63
52957;BME280;38819;42.692;23.342;2023-11-21T11:46:09;94793.81;;;10.48;59.73
52957;BME280;38819;42.692;23.342;2023-11-21T11:48:38;94813.09;;;10.55;59.68
52957;BME280;38819;42.692;23.342;2023-11-21T11:51:05;94818.09;;;10.48;59.89
52957;BME280;38819;42.692;23.342;2023-11-21T11:53:46;94820.59;;;10.31;61.08
52957;BME280;38819;42.692;23.342;2023-11-21T11:58:40;94806.88;;;10.27;61.39
52957;BME280;38819;42.692;23.342;2023-11-21T12:01:06;94819.19;;;10.19;62.00
52957;BME280;38819;42.692;23.342;2023-11-21T12:03:32;94803.88;;;10.15;61.79
52957;BME280;38819;42.692;23.342;2023-11-21T12:05:58;94810.19;;;10.10;63.03
52957;BME280;38819;42.692;23.342;2023-11-21T12:08:23;94812.09;;;9.96;63.18
52957;BME280;38819;42.692;23.342;2023-11-21T12:10:56;94814.59;;;9.92;63.92
52957;BME280;38819;42.692;23.342;2023-11-21T12:13:22;94811.16;;;10.00;64.77
52957;BME280;38819;42.692;23.342;2023-11-21T12:15:48;94816.94;;;9.94;65.35
52957;BME280;38819;42.692;23.342;2023-11-21T12:18:13;94810.56;;;9.90;65.94
52957;BME280;38819;42.692;23.342;2023-11-21T12:20:39;94815.56;;;9.82;65.82
52957;BME280;38819;42.692;23.342;2023-11-21T12:23:06;94811.44;;;9.85;67.23
52957;BME280;38819;42.692;23.342;2023-11-21T12:25:31;94806.94;;;9.80;67.25
52957;BME280;38819;42.692;23.342;2023-11-21T12:27:59;94800.25;;;9.64;67.83
52957;BME280;38819;42.692;23.342;2023-11-21T12:30:27;94796.44;;;9.65;67.49
52957;BME280;38819;42.692;23.342;2023-11-21T12:32:53;94801.81;;;9.65;67.03
52957;BME280;38819;42.692;23.342;2023-11-21T12:35:23;94814.44;;;9.70;68.55
52957;BME280;38819;42.692;23.342;2023-11-21T12:37:49;94820.13;;;9.68;68.40
52957;BME280;38819;42.692;23.342;2023-11-21T12:40:14;94802.66;;;9.66;68.64
52957;BME280;38819;42.692;23.342;2023-11-21T12:42:50;94803.53;;;9.61;68.78
52957;BME280;38819;42.692;23.342;2023-11-21T12:47:46;94802.72;;;9.60;69.71
52957;BME280;38819;42.692;23.342;2023-11-21T12:50:11;94788.63;;;9.63;70.06
52957;BME280;38819;42.692;23.342;2023-11-21T12:52:42;94784.06;;;9.64;70.90
52957;BME280;38819;42.692;23.342;2023-11-21T12:55:17;94777.06;;;9.63;70.58
52957;BME280;38819;42.692;23.342;2023-11-21T12:57:53;94773.00;;;9.66;70.94
52957;BME280;38819;42.692;23.342;2023-11-21T13:00:32;94772.28;;;9.74;70.17
52957;BME280;38819;42.692;23.342;2023-11-21T13:02:59;94763.59;;;9.77;69.04
52957;BME280;38819;42.692;23.342;2023-11-21T13:05:28;94772.22;;;9.79;69.46
52957;BME280;38819;42.692;23.342;2023-11-21T13:07:58;94767.72;;;9.88;68.95
52957;BME280;38819;42.692;23.342;2023-11-21T13:10:25;94762.94;;;9.99;68.44
52957;BME280;38819;42.692;23.342;2023-11-21T13:12:51;94762.19;;;10.07;68.13